Time;durP1;ratioP1;P1;durP2;ratioP2;P2;SDS_P1;SDS_P2;PMS_P1;PMS_P2;Temp;Humidity;BMP_temperature;BMP_pressure;BME280_temperature;BME280_humidity;BME280_pressure;Samples;Min_cycle;Max_cycle;Signal;HPM_P1;HPM_P2
2023/07/01 00:01:27;;;;;;;7.35;4.82;;;19.10;99.90;;;;;;5017291;28;20261;-70
2023/07/01 00:03:52;;;;;;;10.63;7.40;;;19.10;99.90;;;;;;5018864;28;20295;-70
2023/07/01 00:06:19;;;;;;;7.30;5.55;;;19.10;99.90;;;;;;5019697;28;20361;-70
2023/07/01 00:08:45;;;;;;;7.88;5.50;;;19.10;99.90;;;;;;5018497;28;20242;-70
2023/07/01 00:11:11;;;;;;;6.18;4.22;;;19.20;99.90;;;;;;5019540;28;20212;-70
2023/07/01 00:13:36;;;;;;;4.35;3.95;;;19.10;99.90;;;;;;5019144;28;20200;-70
2023/07/01 00:16:04;;;;;;;6.80;5.05;;;19.20;99.90;;;;;;5023516;28;20223;-72
2023/07/01 00:18:30;;;;;;;5.25;4.72;;;19.30;99.90;;;;;;5018527;28;20240;-70
2023/07/01 00:20:56;;;;;;;7.07;4.57;;;19.20;99.90;;;;;;5011715;28;20274;-70
2023/07/01 00:23:22;;;;;;;6.32;4.43;;;19.20;99.90;;;;;;5015787;28;20601;-69
2023/07/01 00:25:47;;;;;;;5.65;4.45;;;19.30;99.90;;;;;;5012230;28;20180;-70
2023/07/01 00:28:14;;;;;;;5.82;4.30;;;19.20;99.90;;;;;;5009618;28;20228;-70
2023/07/01 00:30:39;;;;;;;5.90;4.80;;;19.20;99.90;;;;;;5018928;28;20283;-70
2023/07/01 00:33:05;;;;;;;5.63;4.70;;;19.20;99.90;;;;;;5008192;28;20226;-71
2023/07/01 00:35:31;;;;;;;8.77;4.75;;;19.20;99.90;;;;;;5019447;28;20177;-70
2023/07/01 00:37:58;;;;;;;4.78;4.30;;;19.20;99.90;;;;;;5014289;28;20265;-71
2023/07/01 00:40:23;;;;;;;5.22;4.65;;;19.10;99.90;;;;;;5019354;28;20230;-72
2023/07/01 00:42:49;;;;;;;5.75;5.00;;;19.20;99.90;;;;;;5015308;28;20228;-70
2023/07/01 00:45:15;;;;;;;5.45;4.95;;;19.20;99.90;;;;;;5020752;28;20761;-70
2023/07/01 00:47:40;;;;;;;5.65;5.05;;;19.10;99.90;;;;;;5018714;28;20234;-70
2023/07/01 00:50:11;;;;;;;7.20;4.63;;;19.10;99.90;;;;;;5023031;28;20223;-70
2023/07/01 00:52:38;;;;;;;5.72;4.88;;;19.10;99.90;;;;;;5019910;28;20557;-70
2023/07/01 00:55:05;;;;;;;4.97;4.47;;;19.10;99.90;;;;;;5017572;28;20219;-68
2023/07/01 00:57:32;;;;;;;5.47;4.97;;;19.20;99.90;;;;;;5018677;28;20338;-70
2023/07/01 00:59:58;;;;;;;5.28;4.78;;;19.20;99.90;;;;;;5018999;28;20228;-70
2023/07/01 01:02:33;;;;;;;5.50;4.85;;;19.20;99.90;;;;;;5014415;28;20178;-70
2023/07/01 01:05:13;;;;;;;6.10;5.22;;;19.10;99.90;;;;;;5016106;28;20176;-72
2023/07/01 01:07:53;;;;;;;5.53;4.82;;;19.10;99.90;;;;;;5007711;28;20208;-70
2023/07/01 01:10:25;;;;;;;9.52;5.40;;;19.00;99.90;;;;;;5017363;28;20200;-72
2023/07/01 01:12:53;;;;;;;6.72;4.80;;;18.90;99.90;;;;;;5015305;28;20200;-70
2023/07/01 01:15:20;;;;;;;5.60;5.03;;;18.90;99.90;;;;;;5017218;28;20211;-71
2023/07/01 01:17:51;;;;;;;5.95;5.22;;;18.90;99.90;;;;;;5019962;28;20231;-70
2023/07/01 01:20:20;;;;;;;5.55;4.95;;;18.80;99.90;;;;;;5017901;28;20204;-70
2023/07/01 01:23:03;;;;;;;9.07;4.57;;;18.80;99.90;;;;;;5015205;28;20216;-71
2023/07/01 01:25:42;;;;;;;6.43;5.22;;;18.70;99.90;;;;;;5012483;28;20204;-71
2023/07/01 01:28:09;;;;;;;6.15;4.90;;;18.70;99.90;;;;;;5019274;28;20245;-71
2023/07/01 01:30:35;;;;;;;7.15;5.50;;;18.70;99.90;;;;;;5017640;28;20205;-71
2023/07/01 01:33:02;;;;;;;7.65;5.63;;;18.60;99.90;;;;;;5016350;28;20224;-71
2023/07/01 01:35:27;;;;;;;6.03;5.40;;;18.60;99.90;;;;;;5023074;28;20173;-70
2023/07/01 01:38:25;;;;;;;6.32;5.50;;;18.60;99.90;;;;;;5021882;28;20235;-70
2023/07/01 01:41:04;;;;;;;5.30;4.80;;;18.60;99.90;;;;;;5017290;28;20243;-71
2023/07/01 01:43:51;;;;;;;5.63;5.03;;;18.60;99.90;;;;;;5012967;28;20325;-70
2023/07/01 01:46:19;;;;;;;6.57;5.20;;;18.60;99.90;;;;;;5013999;28;20204;-70
2023/07/01 01:48:45;;;;;;;5.72;5.22;;;18.60;99.90;;;;;;5021017;28;20208;-71
2023/07/01 01:51:13;;;;;;;5.97;5.22;;;18.60;99.90;;;;;;5014189;28;20275;-70
2023/07/01 01:53:39;;;;;;;5.32;4.82;;;18.60;99.90;;;;;;5017389;28;20578;-71
2023/07/01 01:56:06;;;;;;;6.05;5.03;;;18.60;99.90;;;;;;5014671;28;20192;-68
2023/07/01 01:58:32;;;;;;;7.15;5.70;;;18.70;99.90;;;;;;5013543;28;20212;-70
2023/07/01 02:00:58;;;;;;;7.68;5.68;;;18.60;99.90;;;;;;5016741;28;20228;-71
2023/07/01 02:03:23;;;;;;;6.82;5.07;;;18.60;99.90;;;;;;5021272;28;20212;-70
2023/07/01 02:05:49;;;;;;;6.15;5.55;;;18.50;99.90;;;;;;5019655;28;20259;-70
2023/07/01 02:08:15;;;;;;;6.95;5.15;;;18.50;99.90;;;;;;5023735;28;20252;-70
2023/07/01 02:10:40;;;;;;;6.80;5.95;;;18.40;99.90;;;;;;5018899;28;20296;-70
2023/07/01 02:13:06;;;;;;;6.57;5.45;;;18.50;99.90;;;;;;5022651;28;20326;-69
2023/07/01 02:15:32;;;;;;;6.70;5.55;;;18.50;99.90;;;;;;5021274;28;20259;-70
2023/07/01 02:17:57;;;;;;;5.80;5.28;;;18.50;99.90;;;;;;5020638;28;20209;-70
2023/07/01 02:20:23;;;;;;;7.68;5.75;;;18.60;99.90;;;;;;5023486;28;20298;-70
2023/07/01 02:22:49;;;;;;;6.88;5.10;;;18.50;99.90;;;;;;5019141;28;20181;-71
2023/07/01 02:25:15;;;;;;;6.93;5.20;;;18.50;99.90;;;;;;5005807;28;20209;-70
2023/07/01 02:27:40;;;;;;;7.40;5.43;;;18.50;99.90;;;;;;5016456;28;20212;-69
2023/07/01 02:30:07;;;;;;;5.88;5.28;;;18.50;99.90;;;;;;5015559;28;20688;-70
2023/07/01 02:32:32;;;;;;;6.07;5.50;;;18.50;99.90;;;;;;5023445;28;20255;-70
2023/07/01 02:34:58;;;;;;;7.82;6.07;;;18.50;99.90;;;;;;5018329;28;20681;-70
2023/07/01 02:37:24;;;;;;;6.13;5.50;;;18.50;99.90;;;;;;5017262;28;20213;-70
2023/07/01 02:39:49;;;;;;;7.18;5.70;;;18.50;99.90;;;;;;5019080;28;20225;-72
2023/07/01 02:42:19;;;;;;;6.35;5.75;;;18.40;99.90;;;;;;5011665;28;20212;-70
2023/07/01 02:44:46;;;;;;;6.55;5.88;;;18.50;99.90;;;;;;5015910;28;20599;-70
2023/07/01 02:47:12;;;;;;;7.70;6.30;;;18.50;99.90;;;;;;5021800;28;20197;-70
2023/07/01 02:49:40;;;;;;;7.30;6.32;;;18.50;99.90;;;;;;5021678;28;20215;-70
2023/07/01 02:52:07;;;;;;;7.30;5.82;;;18.40;99.90;;;;;;5018758;28;20664;-70
2023/07/01 02:54:33;;;;;;;6.97;5.47;;;18.30;99.90;;;;;;5020202;28;20207;-70
2023/07/01 02:56:58;;;;;;;8.38;6.45;;;18.40;99.90;;;;;;5017581;28;20669;-72
2023/07/01 02:59:24;;;;;;;7.70;6.45;;;18.40;99.90;;;;;;5019235;28;20549;-70
2023/07/01 03:01:50;;;;;;;8.55;6.30;;;18.40;99.90;;;;;;5018154;28;20196;-73
2023/07/01 03:04:15;;;;;;;6.90;6.20;;;18.50;99.90;;;;;;5015094;28;20579;-70
2023/07/01 03:06:41;;;;;;;7.55;6.78;;;18.50;99.90;;;;;;5014079;28;20624;-71
2023/07/01 03:09:07;;;;;;;12.63;9.23;;;18.40;99.90;;;;;;5008694;28;20217;-70
2023/07/01 03:11:36;;;;;;;7.82;6.85;;;18.40;99.90;;;;;;5014901;28;20234;-69
2023/07/01 03:14:02;;;;;;;8.15;7.25;;;18.40;99.90;;;;;;5010213;28;20173;-72
2023/07/01 03:16:30;;;;;;;8.98;7.18;;;18.40;99.90;;;;;;5013901;28;20340;-70
2023/07/01 03:18:59;;;;;;;10.73;8.65;;;18.40;99.90;;;;;;5013469;28;20768;-70
2023/07/01 03:21:26;;;;;;;7.93;7.05;;;18.40;99.90;;;;;;5015902;28;20219;-70
2023/07/01 03:23:52;;;;;;;10.88;7.15;;;18.40;99.90;;;;;;5017004;28;20212;-70
2023/07/01 03:26:17;;;;;;;9.05;7.18;;;18.40;99.90;;;;;;5015582;28;20197;-70
2023/07/01 03:28:44;;;;;;;9.40;6.88;;;18.50;99.90;;;;;;5016619;28;20200;-69
2023/07/01 03:31:11;;;;;;;8.65;6.88;;;18.50;99.90;;;;;;5020994;28;20220;-69
2023/07/01 03:33:36;;;;;;;8.15;7.32;;;18.60;99.90;;;;;;5020084;28;20208;-71
2023/07/01 03:36:02;;;;;;;8.10;6.70;;;18.60;99.90;;;;;;5017576;28;20311;-70
2023/07/01 03:38:28;;;;;;;9.48;7.03;;;18.70;99.90;;;;;;5019272;28;20172;-69
2023/07/01 03:40:54;;;;;;;7.45;6.40;;;18.70;99.90;;;;;;5018143;28;20217;-69
2023/07/01 03:43:19;;;;;;;9.07;7.05;;;18.70;99.90;;;;;;5021989;28;20204;-70
2023/07/01 03:45:45;;;;;;;8.95;6.85;;;18.70;99.90;;;;;;5014709;28;20287;-71
2023/07/01 03:48:11;;;;;;;7.60;6.70;;;18.70;99.90;;;;;;5011713;28;20252;-71
2023/07/01 03:50:36;;;;;;;7.88;6.82;;;18.70;99.90;;;;;;5015081;28;20717;-69
2023/07/01 03:53:02;;;;;;;9.45;6.55;;;18.80;99.90;;;;;;5011110;28;20659;-69
2023/07/01 03:55:28;;;;;;;8.23;7.40;;;18.80;99.90;;;;;;5010901;28;20205;-69
2023/07/01 03:57:53;;;;;;;9.00;8.10;;;18.90;99.90;;;;;;5013866;28;20786;-69
2023/07/01 04:00:19;;;;;;;8.52;7.28;;;19.10;99.90;;;;;;5012047;28;20206;-69
2023/07/01 04:02:49;;;;;;;7.72;6.97;;;19.40;99.90;;;;;;5016475;28;20689;-70
2023/07/01 04:05:15;;;;;;;7.35;6.53;;;19.60;99.90;;;;;;5017523;28;20170;-69
2023/07/01 04:07:42;;;;;;;7.15;6.45;;;19.90;99.90;;;;;;5015976;28;20706;-69
2023/07/01 04:10:09;;;;;;;6.90;6.20;;;20.60;99.90;;;;;;5013807;28;20216;-69
2023/07/01 04:12:35;;;;;;;6.32;5.72;;;21.60;99.90;;;;;;5016493;28;20204;-72
2023/07/01 04:15:03;;;;;;;6.13;5.57;;;22.20;99.90;;;;;;5012212;28;20221;-70
2023/07/01 04:17:29;;;;;;;5.90;5.38;;;22.30;99.90;;;;;;5018492;28;20201;-70
2023/07/01 04:19:56;;;;;;;8.15;5.85;;;22.50;99.90;;;;;;5022886;28;20197;-70
2023/07/01 04:22:22;;;;;;;8.15;6.22;;;22.20;99.90;;;;;;5019841;28;20208;-70
2023/07/01 04:24:48;;;;;;;9.40;6.20;;;21.90;99.90;;;;;;5018045;28;20295;-70
2023/07/01 04:27:14;;;;;;;8.90;6.35;;;21.40;99.90;;;;;;5011429;28;20256;-70
2023/07/01 04:29:39;;;;;;;7.25;5.72;;;21.00;99.90;;;;;;5014370;28;20226;-70
2023/07/01 04:32:05;;;;;;;5.93;5.35;;;20.60;99.90;;;;;;5009340;28;20177;-68
2023/07/01 04:34:31;;;;;;;9.20;6.40;;;20.40;99.90;;;;;;5013369;28;20237;-70
2023/07/01 04:36:56;;;;;;;7.35;6.00;;;20.10;99.90;;;;;;5012668;28;20200;-71
2023/07/01 04:39:23;;;;;;;6.20;5.60;;;20.00;99.90;;;;;;5013931;28;20213;-70
2023/07/01 04:41:49;;;;;;;7.00;5.80;;;19.80;99.90;;;;;;5013194;28;20307;-70
2023/07/01 04:44:14;;;;;;;6.60;6.00;;;19.80;99.90;;;;;;5011311;28;20262;-70
2023/07/01 04:46:40;;;;;;;6.65;6.07;;;19.50;99.90;;;;;;5016045;28;20299;-69
2023/07/01 04:49:08;;;;;;;6.53;5.93;;;19.70;99.90;;;;;;5014190;28;20745;-68
2023/07/01 04:51:37;;;;;;;7.65;6.00;;;19.80;99.90;;;;;;5018430;28;20204;-71
2023/07/01 04:54:04;;;;;;;7.97;6.50;;;19.90;99.90;;;;;;5014790;28;20379;-70
2023/07/01 04:56:30;;;;;;;6.63;5.50;;;20.10;99.90;;;;;;5021163;28;20184;-70
2023/07/01 04:58:56;;;;;;;7.50;5.68;;;20.20;99.90;;;;;;5017685;28;20671;-73
2023/07/01 05:01:22;;;;;;;7.15;5.97;;;20.40;99.90;;;;;;5022309;28;20213;-70
2023/07/01 05:03:48;;;;;;;7.60;6.00;;;20.50;99.90;;;;;;5014866;28;20213;-70
2023/07/01 05:06:13;;;;;;;6.53;5.93;;;20.80;99.90;;;;;;5021800;28;20239;-70
2023/07/01 05:08:39;;;;;;;7.95;7.07;;;21.40;99.90;;;;;;5020349;28;20181;-71
2023/07/01 05:11:05;;;;;;;7.13;6.20;;;22.70;99.90;;;;;;5022945;28;20200;-69
2023/07/01 05:13:30;;;;;;;6.78;5.90;;;24.30;99.90;;;;;;5023788;28;20561;-71
2023/07/01 05:15:56;;;;;;;7.25;5.35;;;26.00;99.90;;;;;;5022449;28;20234;-71
2023/07/01 05:18:21;;;;;;;6.75;4.63;;;27.20;99.90;;;;;;5023197;28;20204;-70
2023/07/01 05:20:47;;;;;;;4.38;3.97;;;28.20;99.90;;;;;;5023982;28;20224;-69
2023/07/01 05:23:13;;;;;;;4.40;4.00;;;28.90;99.90;;;;;;5020407;28;20181;-69
2023/07/01 05:25:40;;;;;;;4.65;4.25;;;29.50;99.90;;;;;;5024197;28;20300;-69
2023/07/01 05:28:06;;;;;;;5.00;4.28;;;30.00;99.90;;;;;;5021264;28;20622;-69
2023/07/01 05:30:31;;;;;;;4.30;3.88;;;30.00;99.90;;;;;;5024626;28;20204;-69
2023/07/01 05:32:57;;;;;;;5.10;3.75;;;29.90;99.90;;;;;;5020904;28;20216;-69
2023/07/01 05:35:23;;;;;;;4.18;3.47;;;29.40;99.90;;;;;;5022665;28;20179;-69
2023/07/01 05:37:48;;;;;;;4.53;4.05;;;29.70;99.90;;;;;;5022286;28;20177;-68
2023/07/01 05:40:14;;;;;;;3.85;3.53;;;30.00;99.90;;;;;;5023229;28;20604;-69
2023/07/01 05:42:40;;;;;;;3.63;3.33;;;30.50;99.90;;;;;;5021448;28;20200;-69
2023/07/01 05:45:06;;;;;;;5.07;3.00;;;30.90;99.90;;;;;;5022682;28;20215;-69
2023/07/01 05:47:32;;;;;;;5.53;3.58;;;31.30;99.90;;;;;;5022671;28;20207;-70
2023/07/01 05:49:57;;;;;;;4.43;3.13;;;31.50;99.90;;;;;;5023588;28;20191;-70
2023/07/01 05:52:23;;;;;;;5.50;3.20;;;32.30;99.90;;;;;;5020813;28;20267;-70
2023/07/01 05:54:49;;;;;;;5.80;3.50;;;32.20;99.90;;;;;;5019774;28;20208;-71
2023/07/01 05:57:15;;;;;;;3.28;3.00;;;32.00;99.90;;;;;;5019439;28;20200;-70
2023/07/01 05:59:41;;;;;;;3.85;2.88;;;32.10;99.90;;;;;;5020834;28;20207;-71
2023/07/01 06:02:07;;;;;;;3.28;2.88;;;32.60;99.90;;;;;;5011866;28;20190;-72
2023/07/01 06:04:33;;;;;;;3.50;2.80;;;32.60;99.90;;;;;;5011264;28;20204;-69
2023/07/01 06:06:59;;;;;;;3.45;2.75;;;32.60;99.90;;;;;;5015646;28;20590;-68
2023/07/01 06:09:24;;;;;;;3.58;2.92;;;32.80;99.90;;;;;;5022953;28;20199;-69
2023/07/01 06:11:50;;;;;;;3.78;2.58;;;33.30;99.90;;;;;;5020218;28;20227;-68
2023/07/01 06:14:16;;;;;;;2.78;2.45;;;33.90;98.80;;;;;;5022727;28;20180;-69
2023/07/01 06:16:41;;;;;;;4.00;2.83;;;34.10;97.40;;;;;;5022005;28;20215;-69
2023/07/01 06:19:07;;;;;;;3.97;2.60;;;34.10;96.60;;;;;;5020605;28;20299;-70
2023/07/01 06:21:32;;;;;;;3.03;2.70;;;34.00;95.40;;;;;;5021897;28;20278;-68
2023/07/01 06:23:58;;;;;;;3.97;2.42;;;34.20;94.70;;;;;;5020602;28;20255;-69
2023/07/01 06:26:23;;;;;;;2.78;2.30;;;34.20;93.90;;;;;;5023292;28;20635;-70
2023/07/01 06:28:49;;;;;;;3.40;2.70;;;34.40;93.80;;;;;;5020681;28;20173;-71
2023/07/01 06:31:15;;;;;;;4.68;2.63;;;34.90;92.80;;;;;;5016606;28;20224;-69
2023/07/01 06:33:40;;;;;;;3.15;2.47;;;34.80;92.50;;;;;;5023492;28;20202;-69
2023/07/01 06:36:06;;;;;;;4.38;2.80;;;34.20;91.30;;;;;;5017943;28;20235;-69
2023/07/01 06:38:32;;;;;;;2.65;2.38;;;34.90;91.00;;;;;;5022694;28;20181;-70
2023/07/01 06:40:58;;;;;;;4.70;2.30;;;35.00;90.60;;;;;;5014291;28;20215;-71
2023/07/01 06:43:23;;;;;;;3.40;2.53;;;34.70;90.30;;;;;;5020001;28;20211;-70
2023/07/01 06:45:49;;;;;;;4.47;2.63;;;34.60;90.60;;;;;;5019062;28;20709;-70
2023/07/01 06:48:14;;;;;;;3.40;2.28;;;35.10;89.80;;;;;;5018354;28;20216;-70
2023/07/01 06:50:40;;;;;;;3.15;2.17;;;35.40;87.80;;;;;;5022150;28;20231;-70
2023/07/01 06:53:06;;;;;;;4.07;2.63;;;35.50;87.20;;;;;;5017007;28;20196;-74
2023/07/01 06:55:32;;;;;;;2.78;2.15;;;35.90;86.60;;;;;;5018282;28;20220;-70
2023/07/01 06:58:01;;;;;;;5.28;2.67;;;35.90;85.10;;;;;;5021763;28;20246;-70
2023/07/01 07:00:29;;;;;;;2.97;2.38;;;35.80;83.80;;;;;;5012602;28;20215;-71
2023/07/01 07:02:54;;;;;;;2.42;2.10;;;36.30;83.80;;;;;;5019712;28;20263;-70
2023/07/01 07:05:20;;;;;;;4.53;2.75;;;36.70;83.00;;;;;;5020467;28;20195;-69
2023/07/01 07:07:46;;;;;;;3.30;2.40;;;36.60;80.70;;;;;;5017825;28;20212;-70
2023/07/01 07:10:11;;;;;;;3.30;2.17;;;36.50;77.90;;;;;;5019471;28;20204;-71
2023/07/01 07:12:37;;;;;;;4.82;2.40;;;36.60;79.00;;;;;;5018298;28;20775;-70
2023/07/01 07:15:03;;;;;;;2.63;1.95;;;37.00;76.00;;;;;;5018458;28;20223;-70
2023/07/01 07:17:29;;;;;;;2.38;1.92;;;37.20;75.40;;;;;;5011140;28;20195;-71
2023/07/01 07:19:55;;;;;;;2.47;1.60;;;37.60;72.50;;;;;;5007804;28;20256;-70
2023/07/01 07:22:21;;;;;;;2.42;1.95;;;37.60;71.40;;;;;;5011169;28;20204;-70
2023/07/01 07:24:46;;;;;;;3.80;2.00;;;37.30;70.50;;;;;;5008099;28;20211;-76
2023/07/01 07:27:12;;;;;;;4.15;2.40;;;37.10;70.60;;;;;;5013175;28;20212;-71
2023/07/01 07:29:39;;;;;;;3.60;2.13;;;37.00;69.80;;;;;;5010838;28;20191;-70
2023/07/01 07:32:05;;;;;;;2.72;1.85;;;37.70;69.10;;;;;;5008243;28;21477;-74
2023/07/01 07:34:31;;;;;;;2.08;1.88;;;37.90;67.30;;;;;;5006758;28;20240;-72
2023/07/01 07:36:57;;;;;;;3.00;1.92;;;37.90;66.80;;;;;;5010386;28;20276;-70
2023/07/01 07:39:23;;;;;;;3.95;1.95;;;37.70;66.40;;;;;;5008354;28;20708;-73
2023/07/01 07:41:49;;;;;;;3.63;1.95;;;38.00;66.40;;;;;;5006704;28;20223;-70
2023/07/01 07:44:15;;;;;;;2.95;2.13;;;37.20;66.00;;;;;;5010112;28;20167;-73
2023/07/01 07:46:42;;;;;;;2.08;1.55;;;36.90;65.80;;;;;;5007291;28;20295;-70
2023/07/01 07:49:08;;;;;;;2.97;1.83;;;36.60;65.20;;;;;;5012394;28;20296;-71
2023/07/01 07:51:33;;;;;;;2.33;1.63;;;35.50;64.60;;;;;;5008357;28;20316;-71
2023/07/01 07:53:59;;;;;;;2.67;1.90;;;35.70;65.50;;;;;;5008663;28;20572;-70
2023/07/01 07:56:25;;;;;;;2.88;1.85;;;35.90;65.80;;;;;;5008372;28;20195;-71
2023/07/01 07:58:50;;;;;;;2.70;2.00;;;36.40;64.50;;;;;;5004729;28;20227;-72
2023/07/01 08:01:16;;;;;;;6.00;3.35;;;36.60;64.60;;;;;;5004024;28;20794;-72
2023/07/01 08:03:42;;;;;;;4.88;3.28;;;37.30;64.20;;;;;;5010265;28;20208;-71
2023/07/01 08:06:07;;;;;;;2.58;1.98;;;37.10;63.50;;;;;;5004598;28;20224;-71
2023/07/01 08:08:34;;;;;;;4.22;1.80;;;37.20;62.40;;;;;;5004557;28;20169;-70
2023/07/01 08:11:00;;;;;;;3.10;2.25;;;37.40;61.80;;;;;;5013695;28;20266;-70
2023/07/01 08:13:25;;;;;;;3.30;2.13;;;37.00;63.70;;;;;;5012064;28;20199;-70
2023/07/01 08:15:51;;;;;;;3.10;2.25;;;36.80;62.40;;;;;;5011915;28;20204;-71
2023/07/01 08:18:17;;;;;;;3.60;2.33;;;36.40;62.10;;;;;;5008101;28;20684;-74
2023/07/01 08:20:46;;;;;;;2.40;1.80;;;36.80;63.30;;;;;;5010709;28;20220;-71
2023/07/01 08:23:14;;;;;;;3.85;2.97;;;37.00;62.80;;;;;;5015762;28;20188;-72
2023/07/01 08:25:40;;;;;;;1.83;1.73;;;37.00;62.40;;;;;;5009769;28;20207;-73
2023/07/01 08:28:06;;;;;;;2.88;1.52;;;35.80;61.00;;;;;;5007628;28;20319;-71
2023/07/01 08:30:31;;;;;;;2.17;1.50;;;35.30;62.70;;;;;;5008462;28;20212;-72
2023/07/01 08:32:57;;;;;;;4.43;1.95;;;34.70;64.10;;;;;;5009915;28;20212;-71
2023/07/01 08:35:23;;;;;;;2.38;1.80;;;33.50;65.00;;;;;;5005976;28;20495;-70
2023/07/01 08:37:48;;;;;;;5.95;1.85;;;33.50;66.00;;;;;;5009647;28;20322;-70
2023/07/01 08:40:14;;;;;;;3.28;1.63;;;33.30;66.70;;;;;;5006130;28;20217;-72
2023/07/01 08:42:48;;;;;;;4.03;1.95;;;34.10;66.90;;;;;;5019665;28;20199;-70
2023/07/01 08:45:15;;;;;;;2.05;1.85;;;33.60;67.40;;;;;;5016674;28;20287;-73
2023/07/01 08:47:41;;;;;;;2.05;1.70;;;33.20;66.90;;;;;;5012534;28;20227;-72
2023/07/01 08:50:08;;;;;;;2.22;1.70;;;33.50;66.30;;;;;;5017245;28;20204;-73
2023/07/01 08:52:45;;;;;;;3.35;1.85;;;33.80;67.60;;;;;;5002333;28;20582;-70
2023/07/01 08:55:11;;;;;;;3.60;1.88;;;34.40;67.10;;;;;;5009267;28;20212;-70
2023/07/01 08:57:40;;;;;;;2.80;1.80;;;34.90;66.40;;;;;;5014796;28;20232;-75
2023/07/01 09:00:12;;;;;;;2.55;1.70;;;34.90;65.40;;;;;;5013330;28;20251;-71
2023/07/01 09:02:38;;;;;;;2.85;1.80;;;34.80;65.20;;;;;;5019361;28;20200;-71
2023/07/01 09:05:05;;;;;;;2.80;2.00;;;33.80;64.90;;;;;;5021572;28;20176;-67
2023/07/01 09:07:30;;;;;;;5.22;2.10;;;32.80;65.10;;;;;;5014384;28;20206;-70
2023/07/01 09:10:05;;;;;;;2.38;1.70;;;32.50;67.30;;;;;;5017848;28;20219;-71
2023/07/01 09:12:31;;;;;;;2.33;1.83;;;33.50;68.80;;;;;;5021316;28;20216;-70
2023/07/01 09:14:58;;;;;;;3.78;2.40;;;33.80;67.10;;;;;;5013214;28;20295;-69
2023/07/01 09:17:31;;;;;;;3.30;1.70;;;32.90;67.20;;;;;;5014221;28;20177;-72
2023/07/01 09:20:15;;;;;;;2.42;1.73;;;32.20;67.90;;;;;;5009633;28;20197;-70
2023/07/01 09:22:46;;;;;;;4.13;1.60;;;31.60;69.10;;;;;;5012608;28;20259;-71
2023/07/01 09:25:28;;;;;;;2.60;1.58;;;31.80;68.80;;;;;;5012017;28;20213;-70
2023/07/01 09:27:54;;;;;;;3.55;1.70;;;32.80;69.70;;;;;;5007406;28;20216;-75
2023/07/01 09:30:20;;;;;;;2.05;1.85;;;33.10;68.70;;;;;;5011340;28;20895;-70
2023/07/01 09:32:45;;;;;;;4.80;1.95;;;32.70;67.70;;;;;;5013907;28;20217;-70
2023/07/01 09:35:12;;;;;;;2.53;1.92;;;32.50;69.20;;;;;;5010519;28;20185;-71
2023/07/01 09:37:38;;;;;;;3.08;1.75;;;32.50;69.80;;;;;;5010711;28;20211;-70
2023/07/01 09:40:21;;;;;;;3.47;1.63;;;32.70;70.80;;;;;;5011050;28;20592;-67
2023/07/01 09:42:51;;;;;;;3.17;1.60;;;32.00;69.10;;;;;;5010818;28;20631;-70
2023/07/01 09:45:17;;;;;;;5.05;1.77;;;29.70;71.80;;;;;;5003309;28;20229;-70
2023/07/01 09:47:42;;;;;;;3.58;1.70;;;29.10;74.90;;;;;;5009563;28;20228;-74
2023/07/01 09:50:19;;;;;;;3.15;1.73;;;29.60;76.50;;;;;;5012265;28;20193;-70
2023/07/01 09:52:45;;;;;;;4.75;2.00;;;30.10;75.70;;;;;;5014013;28;20762;-70
2023/07/01 09:55:11;;;;;;;2.65;2.00;;;30.50;74.90;;;;;;5009271;28;20216;-70
2023/07/01 09:57:37;;;;;;;3.55;2.10;;;30.30;74.20;;;;;;5007087;28;20202;-70
2023/07/01 10:00:06;;;;;;;3.47;2.10;;;29.60;74.40;;;;;;5011268;28;20213;-70
2023/07/01 10:02:32;;;;;;;2.60;1.88;;;29.60;75.60;;;;;;5010394;28;20184;-73
2023/07/01 10:05:00;;;;;;;2.97;1.80;;;29.60;76.90;;;;;;5014258;28;20185;-71
2023/07/01 10:07:26;;;;;;;4.18;1.70;;;30.20;77.00;;;;;;5010033;28;20344;-70
2023/07/01 10:09:52;;;;;;;3.65;2.00;;;29.90;76.10;;;;;;5016847;28;20232;-69
2023/07/01 10:12:18;;;;;;;4.60;2.13;;;29.30;75.20;;;;;;5004463;28;20670;-70
2023/07/01 10:14:50;;;;;;;4.35;2.00;;;29.40;77.40;;;;;;5008815;28;20212;-70
2023/07/01 10:17:17;;;;;;;2.97;1.83;;;29.10;76.40;;;;;;5013386;28;20185;-70
2023/07/01 10:19:46;;;;;;;6.13;3.00;;;29.40;78.20;;;;;;5014479;28;20687;-71
2023/07/01 10:22:31;;;;;;;3.55;2.20;;;29.70;78.00;;;;;;5017163;28;20329;-70
2023/07/01 10:25:03;;;;;;;6.22;2.08;;;29.40;76.70;;;;;;5014320;28;20204;-70
2023/07/01 10:27:41;;;;;;;4.30;1.98;;;28.40;78.10;;;;;;5012941;28;20782;-70
2023/07/01 10:30:12;;;;;;;4.97;2.35;;;28.10;80.90;;;;;;5028722;28;20212;-69
2023/07/01 10:32:37;;;;;;;5.18;2.58;;;28.60;82.20;;;;;;5019954;28;20181;-72
2023/07/01 10:35:03;;;;;;;5.60;2.47;;;29.10;80.40;;;;;;5011264;28;20276;-70
2023/07/01 10:37:31;;;;;;;3.78;1.85;;;29.60;79.70;;;;;;5010062;28;20250;-70
2023/07/01 10:39:58;;;;;;;2.70;1.60;;;30.00;79.20;;;;;;5002971;28;20217;-70
2023/07/01 10:42:31;;;;;;;4.93;2.22;;;30.10;79.10;;;;;;5013861;28;20215;-69
2023/07/01 10:45:12;;;;;;;7.20;2.55;;;30.30;78.60;;;;;;5012785;28;20219;-69
2023/07/01 10:47:49;;;;;;;3.63;2.08;;;29.10;79.90;;;;;;5008787;28;20208;-70
2023/07/01 10:50:19;;;;;;;4.85;2.03;;;29.50;80.30;;;;;;5015867;28;20786;-71
2023/07/01 10:52:59;;;;;;;5.07;2.67;;;29.40;79.50;;;;;;5018823;28;20213;-72
2023/07/01 10:55:46;;;;;;;5.68;2.35;;;29.10;79.60;;;;;;5028549;28;20548;-72
2023/07/01 10:58:26;;;;;;;6.50;2.70;;;28.70;81.10;;;;;;5012354;28;20220;-71
2023/07/01 11:00:59;;;;;;;3.55;2.28;;;28.20;83.70;;;;;;5006672;28;20217;-69
2023/07/01 11:03:36;;;;;;;6.80;2.92;;;28.20;82.60;;;;;;5018118;28;20266;-67
2023/07/01 11:06:06;;;;;;;5.72;2.70;;;28.20;83.40;;;;;;5013200;28;20239;-70
2023/07/01 11:08:52;;;;;;;4.70;2.65;;;27.40;84.80;;;;;;5013399;28;20652;-70
2023/07/01 11:11:21;;;;;;;7.10;2.40;;;27.50;87.10;;;;;;5037129;28;20274;-72
2023/07/01 11:14:04;;;;;;;6.75;2.60;;;27.50;86.40;;;;;;5013503;28;20679;-73
2023/07/01 11:16:30;;;;;;;4.57;2.00;;;27.60;87.40;;;;;;5009965;28;20604;-71
2023/07/01 11:18:58;;;;;;;3.38;2.33;;;27.50;87.80;;;;;;5014666;28;20208;-72
2023/07/01 11:21:26;;;;;;;4.38;2.60;;;27.60;87.90;;;;;;5010684;28;20209;-72
2023/07/01 11:23:58;;;;;;;2.92;2.38;;;27.60;89.10;;;;;;5013614;28;20278;-73
2023/07/01 11:26:26;;;;;;;7.30;2.08;;;28.00;90.60;;;;;;5010142;28;20207;-74
2023/07/01 11:28:52;;;;;;;2.40;2.20;;;28.60;90.00;;;;;;5014347;28;20177;-74
2023/07/01 11:31:21;;;;;;;4.32;2.05;;;28.90;90.10;;;;;;5016495;28;20210;-74
2023/07/01 11:33:51;;;;;;;5.82;2.63;;;28.80;87.90;;;;;;5011042;28;20228;-76
2023/07/01 11:36:19;;;;;;;6.40;2.60;;;29.10;87.60;;;;;;5005433;28;20209;-75
2023/07/01 11:38:46;;;;;;;4.47;2.67;;;29.30;87.70;;;;;;5019038;28;20798;-72
2023/07/01 11:41:17;;;;;;;3.60;2.20;;;29.50;88.30;;;;;;5014702;28;20295;-72
2023/07/01 11:43:43;;;;;;;5.25;2.40;;;28.80;87.50;;;;;;5016834;28;20259;-72
2023/07/01 11:46:12;;;;;;;5.90;3.70;;;29.00;87.70;;;;;;5017066;28;20207;-77
2023/07/01 11:48:39;;;;;;;6.72;2.83;;;28.80;88.00;;;;;;5009438;28;20245;-75
2023/07/01 11:51:04;;;;;;;4.30;2.88;;;28.70;88.60;;;;;;5011636;28;20204;-72
2023/07/01 11:53:30;;;;;;;6.30;2.50;;;28.80;88.90;;;;;;5009358;28;20174;-74
2023/07/01 11:55:58;;;;;;;5.47;3.05;;;28.60;88.70;;;;;;5011020;28;20200;-76
2023/07/01 11:58:39;;;;;;;4.43;2.58;;;28.50;90.30;;;;;;5012002;28;20256;-70
2023/07/01 12:01:25;;;;;;;6.07;2.83;;;28.50;89.90;;;;;;4994368;28;20206;-71
2023/07/01 12:03:54;;;;;;;5.00;2.80;;;28.50;90.20;;;;;;5010003;28;20554;-72
2023/07/01 12:06:24;;;;;;;5.07;2.65;;;27.90;89.40;;;;;;5005687;28;20209;-72
2023/07/01 12:08:56;;;;;;;4.55;3.42;;;27.90;89.10;;;;;;5012277;28;20207;-72
2023/07/01 12:11:23;;;;;;;6.43;3.00;;;28.00;90.60;;;;;;5015549;28;20193;-70
2023/07/01 12:13:50;;;;;;;4.88;2.90;;;28.30;89.80;;;;;;5010645;28;20178;-73
2023/07/01 12:16:17;;;;;;;4.10;2.58;;;28.30;89.00;;;;;;5008041;28;20232;-75
2023/07/01 12:18:43;;;;;;;4.75;3.10;;;28.30;90.00;;;;;;5012299;28;20208;-73
2023/07/01 12:21:08;;;;;;;4.82;3.30;;;28.40;90.00;;;;;;5012143;28;20209;-74
2023/07/01 12:23:44;;;;;;;6.63;3.13;;;28.10;89.10;;;;;;5007807;28;20184;-75
2023/07/01 12:26:11;;;;;;;5.18;3.50;;;28.30;90.30;;;;;;5010679;28;20177;-72
2023/07/01 12:28:38;;;;;;;5.50;2.70;;;28.80;89.10;;;;;;5011257;28;20211;-74
2023/07/01 12:31:04;;;;;;;4.07;2.47;;;28.20;85.90;;;;;;5016821;28;20208;-74
2023/07/01 12:33:30;;;;;;;6.88;3.22;;;28.30;87.40;;;;;;5011449;28;20239;-74
2023/07/01 12:35:57;;;;;;;4.82;2.70;;;28.10;87.70;;;;;;5013606;28;20243;-73
2023/07/01 12:38:23;;;;;;;3.63;2.78;;;28.40;86.90;;;;;;5013460;28;20189;-74
2023/07/01 12:40:48;;;;;;;5.75;2.42;;;28.60;85.80;;;;;;5009350;28;20220;-74
2023/07/01 12:43:14;;;;;;;3.92;2.17;;;28.90;84.70;;;;;;5011002;28;20225;-74
2023/07/01 12:45:39;;;;;;;9.02;3.67;;;28.90;84.60;;;;;;5006646;28;20209;-75
2023/07/01 12:48:05;;;;;;;7.30;4.00;;;29.10;84.30;;;;;;5009422;28;20217;-74